Terminal Aerodrome Forecast
Issued by NWS

Home | Current Version | Previous Version | Text Only | Print | Product List | Glossary On
Versions: 1 2 3 4 5 6 7 8 9 10 11 12 13 14
000
FTUS46 KMTR 180538
TAFOAK
TAF
KOAK 180538Z 1806/1912 VRB03KT P6SM FEW010 SCT180
     FM180900 05003KT P6SM SCT014 BKN200
     FM181800 25005KT P6SM FEW010 BKN200
     FM182100 28009KT P6SM FEW200
     FM190600 28006KT P6SM OVC008=

USA.gov is the U.S. government's official web portal to all federal, state and local government web resources and services.